Winedale's Hourly Summary for Tuesday, July 10, 2018
Hour Temp
(f)
RH
(%)
Solar Rad.
(MJ/m2)
Rainfall
(in)
Wind
(mph)
7/10/2018 12:00 AM 73 97 0 0 0
7/10/2018 1:00 AM 72 97 0 0 0
7/10/2018 2:00 AM 72 97 0 0 0
7/10/2018 3:00 AM 71 98 0 0 0
7/10/2018 4:00 AM 71 98 0 0 0
7/10/2018 5:00 AM 70 98 0 0 0
7/10/2018 6:00 AM 70 98 0 0 0
7/10/2018 7:00 AM 70 98 0.03 0 0
7/10/2018 8:00 AM 73 98 0.38 0 0
7/10/2018 9:00 AM 77 90 0.94 0 0
7/10/2018 10:00 AM 79 79 1.3 0 2
7/10/2018 11:00 AM 82 72 1.51 0 2.78
7/10/2018 12:00 PM 85 59 2.61 0 3.62
7/10/2018 1:00 PM 87 52 2.84 0 2.59
7/10/2018 2:00 PM 89 51 3.3 0 2.66
7/10/2018 3:00 PM 91 46 3.36 0 3
7/10/2018 4:00 PM 90 40 2.23 0 2.27
7/10/2018 5:00 PM 92 39 1.77 0 3.01
7/10/2018 6:00 PM 90 44 1.04 0 3.5
7/10/2018 7:00 PM 90 46 1.03 0 2.75
7/10/2018 8:00 PM 89 48 0.39 0 1.36
7/10/2018 9:00 PM 83 58 0.03 0 0.26
7/10/2018 10:00 PM 81 70 0 0 2.28
7/10/2018 11:00 PM 79 80 0 0 2.92
Data Summary 80 73 22.76 0.00 1.46